createdAt,value
2023-05-16T00:00:38.074Z,9.85
2023-05-16T00:03:06.210Z,9.75
2023-05-16T00:05:36.044Z,9.90
2023-05-16T00:08:03.636Z,10.23
2023-05-16T00:10:31.184Z,10.20
2023-05-16T00:12:58.760Z,12.70
2023-05-16T00:15:26.340Z,14.07
2023-05-16T00:17:58.474Z,11.95
2023-05-16T00:20:28.015Z,12.45
2023-05-16T00:23:00.913Z,13.45
2023-05-16T00:25:28.632Z,12.50
2023-05-16T00:27:56.327Z,12.57
2023-05-16T00:30:24.029Z,11.10
2023-05-16T00:32:52.884Z,10.80
2023-05-16T00:35:20.446Z,11.43
2023-05-16T00:37:50.972Z,10.18
2023-05-16T00:40:20.011Z,11.07
2023-05-16T00:42:47.622Z,10.50
2023-05-16T00:45:15.316Z,11.70
2023-05-16T00:47:44.188Z,11.35
2023-05-16T00:50:12.130Z,11.15
2023-05-16T00:52:39.912Z,10.30
2023-05-16T00:55:10.321Z,9.50
2023-05-16T00:57:39.691Z,9.63
2023-05-16T01:00:10.569Z,10.05
2023-05-16T01:02:38.842Z,10.07
2023-05-16T01:05:08.387Z,10.00
2023-05-16T01:07:36.501Z,10.32
2023-05-16T01:10:07.227Z,10.85
2023-05-16T01:12:46.493Z,10.82
2023-05-16T01:15:18.634Z,11.10
2023-05-16T01:17:54.583Z,11.48
2023-05-16T01:20:34.038Z,10.02
2023-05-16T01:23:08.680Z,10.20
2023-05-16T01:25:56.854Z,10.85
2023-05-16T01:28:26.670Z,10.25
2023-05-16T01:30:54.372Z,9.93
2023-05-16T01:33:21.958Z,11.38
2023-05-16T01:35:59.779Z,13.00
2023-05-16T01:38:33.324Z,14.75
2023-05-16T01:41:05.787Z,11.80
2023-05-16T01:43:42.925Z,15.70
2023-05-16T01:46:13.570Z,18.23
2023-05-16T01:48:50.575Z,16.95
2023-05-16T01:51:19.442Z,18.02
2023-05-16T01:53:47.437Z,19.55
2023-05-16T01:56:18.001Z,19.73
2023-05-16T01:58:49.219Z,20.83
2023-05-16T02:01:16.873Z,20.95
2023-05-16T02:03:44.543Z,20.67
2023-05-16T02:06:12.160Z,22.50
2023-05-16T02:12:45.984Z,21.98
2023-05-16T02:15:15.511Z,22.40
2023-05-16T02:17:43.223Z,20.40
2023-05-16T02:20:11.902Z,20.95
2023-05-16T02:22:40.194Z,21.10
2023-05-16T02:25:08.567Z,21.08
2023-05-16T02:27:36.167Z,20.80
2023-05-16T02:30:04.698Z,22.27
2023-05-16T02:32:33.857Z,22.70
2023-05-16T02:35:01.470Z,22.73
2023-05-16T02:37:29.487Z,22.55
2023-05-16T02:39:57.743Z,22.05
2023-05-16T02:42:27.966Z,22.10
2023-05-16T02:44:55.520Z,20.13
2023-05-16T02:47:23.164Z,22.95
2023-05-16T02:49:52.763Z,22.35
2023-05-16T02:52:20.910Z,21.65
2023-05-16T02:54:56.105Z,21.33
2023-05-16T02:57:32.142Z,21.38
2023-05-16T03:00:00.166Z,21.70
2023-05-16T03:02:27.814Z,21.92
2023-05-16T03:04:56.778Z,21.05
2023-05-16T03:07:24.508Z,20.77
2023-05-16T03:09:52.420Z,22.40
2023-05-16T03:12:20.061Z,21.25
2023-05-16T03:14:47.594Z,20.98
2023-05-16T03:17:15.178Z,22.17
2023-05-16T03:19:42.737Z,25.60
2023-05-16T03:22:11.837Z,23.23
2023-05-16T03:24:43.667Z,20.90
2023-05-16T03:27:12.465Z,21.63
2023-05-16T03:29:40.006Z,21.23
2023-05-16T03:32:07.794Z,21.35
2023-05-16T03:34:35.489Z,22.08
2023-05-16T03:37:03.152Z,19.10
2023-05-16T03:39:32.233Z,21.00
2023-05-16T03:41:59.780Z,18.23
2023-05-16T03:44:27.399Z,20.00
2023-05-16T03:46:55.957Z,22.35
2023-05-16T03:49:28.099Z,20.42
2023-05-16T03:51:55.686Z,20.48
2023-05-16T03:54:23.333Z,18.92
2023-05-16T03:56:52.189Z,18.48
2023-05-16T03:59:19.790Z,18.98
2023-05-16T04:01:47.625Z,19.17
2023-05-16T04:04:15.274Z,20.33
2023-05-16T04:06:43.071Z,20.58
2023-05-16T04:09:10.713Z,17.23
2023-05-16T04:11:38.688Z,18.83
2023-05-16T04:14:07.784Z,19.33
2023-05-16T04:16:35.553Z,18.35
2023-05-16T04:19:04.053Z,18.88
2023-05-16T04:21:31.746Z,19.00
2023-05-16T04:23:59.270Z,18.10
2023-05-16T04:26:27.545Z,18.60
2023-05-16T04:28:55.143Z,18.33
2023-05-16T04:31:26.374Z,18.17
2023-05-16T04:33:54.055Z,18.27
2023-05-16T04:36:22.060Z,17.38
2023-05-16T04:38:49.581Z,18.17
2023-05-16T04:41:17.297Z,16.98
2023-05-16T04:43:45.611Z,18.45
2023-05-16T04:46:13.511Z,17.20
2023-05-16T04:48:42.647Z,18.15
2023-05-16T04:51:10.199Z,17.35
2023-05-16T04:53:37.702Z,16.98
2023-05-16T04:56:06.050Z,16.98
2023-05-16T04:58:33.555Z,16.40
2023-05-16T05:01:01.848Z,16.13
2023-05-16T05:03:29.513Z,16.00
2023-05-16T05:05:58.350Z,16.77
2023-05-16T05:08:26.931Z,16.75
2023-05-16T05:10:54.519Z,16.98
2023-05-16T05:13:22.160Z,15.65
2023-05-16T05:15:50.345Z,15.70
2023-05-16T05:18:18.272Z,16.35
2023-05-16T05:20:45.923Z,15.90
2023-05-16T05:23:14.779Z,14.00
2023-05-16T05:25:42.327Z,14.77
2023-05-16T05:28:09.827Z,15.55
2023-05-16T05:30:37.752Z,15.30
2023-05-16T05:33:05.377Z,15.60
2023-05-16T05:35:33.970Z,14.88
2023-05-16T05:38:01.900Z,15.05
2023-05-16T05:40:30.959Z,14.68
2023-05-16T05:42:58.497Z,14.05
2023-05-16T05:45:26.285Z,14.82
2023-05-16T05:47:54.126Z,14.40
2023-05-16T05:50:21.677Z,13.90
2023-05-16T05:52:49.317Z,15.07
2023-05-16T05:55:16.861Z,14.38
2023-05-16T05:57:45.877Z,14.60
2023-05-16T06:00:14.189Z,14.05
2023-05-16T06:02:41.959Z,14.10
2023-05-16T06:05:10.515Z,13.27
2023-05-16T06:07:38.140Z,14.15
2023-05-16T06:10:08.442Z,13.13
2023-05-16T06:12:36.235Z,12.98
2023-05-16T06:15:05.685Z,13.75
2023-05-16T06:17:33.228Z,11.95
2023-05-16T06:20:00.938Z,12.60
2023-05-16T06:22:28.515Z,11.85
2023-05-16T06:24:56.066Z,12.25
2023-05-16T06:27:23.580Z,12.35
2023-05-16T06:29:51.078Z,11.82
2023-05-16T06:32:20.078Z,10.75
2023-05-16T06:34:47.586Z,11.43
2023-05-16T06:37:15.098Z,10.85
2023-05-16T06:39:42.681Z,10.30
2023-05-16T06:42:10.995Z,10.65
2023-05-16T06:44:38.764Z,9.98
2023-05-16T06:47:06.570Z,9.07
2023-05-16T06:49:35.913Z,9.40
2023-05-16T06:52:03.606Z,9.05
2023-05-16T06:54:32.146Z,8.13
2023-05-16T06:56:59.769Z,8.18
2023-05-16T06:59:28.219Z,7.03
2023-05-16T07:01:55.960Z,6.57
2023-05-16T07:04:23.766Z,7.35
2023-05-16T07:06:53.077Z,6.95
2023-05-16T07:09:21.751Z,6.63
2023-05-16T07:11:49.368Z,5.65
2023-05-16T07:14:16.966Z,5.45
2023-05-16T07:16:44.572Z,5.43
2023-05-16T07:19:12.253Z,4.95
2023-05-16T07:21:40.078Z,4.95
2023-05-16T07:24:09.145Z,4.88
2023-05-16T07:26:36.728Z,4.25
2023-05-16T07:29:04.445Z,3.97
2023-05-16T07:31:32.205Z,3.90
2023-05-16T07:33:59.784Z,4.18
2023-05-16T07:36:27.475Z,3.58
2023-05-16T07:38:55.103Z,3.70
2023-05-16T07:41:25.510Z,3.08
2023-05-16T07:43:53.157Z,3.00
2023-05-16T07:46:20.947Z,2.58
2023-05-16T07:48:48.653Z,2.58
2023-05-16T07:51:16.333Z,2.70
2023-05-16T07:53:43.966Z,2.22
2023-05-16T07:56:12.817Z,2.13
2023-05-16T07:58:42.605Z,1.73
2023-05-16T08:01:10.217Z,2.30
2023-05-16T08:03:38.093Z,2.35
2023-05-16T08:06:06.467Z,1.90
2023-05-16T08:08:34.101Z,1.67
2023-05-16T08:11:01.814Z,1.48
2023-05-16T08:13:29.449Z,1.20
2023-05-16T08:15:58.455Z,1.30
2023-05-16T08:18:26.130Z,1.50
2023-05-16T08:20:53.750Z,1.20
2023-05-16T08:23:21.342Z,1.27
2023-05-16T08:25:49.045Z,1.40
2023-05-16T08:28:16.658Z,1.02
2023-05-16T08:30:46.428Z,1.40
2023-05-16T08:33:17.310Z,1.33
2023-05-16T08:35:46.227Z,1.27
2023-05-16T08:38:13.780Z,1.50
2023-05-16T08:40:42.700Z,1.52
2023-05-16T08:43:10.539Z,1.55
2023-05-16T08:45:38.470Z,1.65
2023-05-16T08:48:10.104Z,1.02
2023-05-16T08:50:39.575Z,1.52
2023-05-16T08:53:09.109Z,1.75
2023-05-16T08:55:37.649Z,1.80
2023-05-16T08:58:05.629Z,1.40
2023-05-16T09:00:33.590Z,2.05
2023-05-16T09:03:01.535Z,10.00
2023-05-16T09:05:31.086Z,1.67
2023-05-16T09:08:00.442Z,0.80
2023-05-16T09:10:28.041Z,1.30
2023-05-16T09:12:55.688Z,1.00
2023-05-16T09:15:23.316Z,0.98
2023-05-16T09:17:51.568Z,1.65
2023-05-16T09:20:21.832Z,0.80
2023-05-16T09:22:53.909Z,0.80
2023-05-16T09:27:55.790Z,0.60
2023-05-16T09:30:25.003Z,1.50
2023-05-16T09:32:54.290Z,0.50
2023-05-16T09:35:35.174Z,0.40
2023-05-16T09:38:15.370Z,0.57
2023-05-16T09:40:44.524Z,0.38
2023-05-16T09:43:16.952Z,0.35
2023-05-16T09:45:48.744Z,0.40
2023-05-16T09:48:18.046Z,0.40
2023-05-16T09:50:52.224Z,0.50
2023-05-16T09:53:27.022Z,0.70
2023-05-16T09:56:02.990Z,0.57
2023-05-16T09:58:31.769Z,0.47
2023-05-16T10:01:00.547Z,0.50
2023-05-16T10:03:29.218Z,0.57
2023-05-16T10:05:57.462Z,0.50
2023-05-16T10:08:27.153Z,0.65
2023-05-16T10:10:56.656Z,0.73
2023-05-16T10:13:30.085Z,0.60
2023-05-16T10:18:30.987Z,0.70
2023-05-16T10:21:03.267Z,0.68
2023-05-16T10:23:32.413Z,0.80
2023-05-16T10:26:04.544Z,0.60
2023-05-16T10:28:33.781Z,0.90
2023-05-16T10:31:02.685Z,0.60
2023-05-16T10:33:30.254Z,1.27
2023-05-16T10:35:58.716Z,1.13
2023-05-16T10:38:27.705Z,0.50
2023-05-16T10:40:56.717Z,0.52
2023-05-16T10:43:26.579Z,0.80
2023-05-16T10:48:57.887Z,0.55
2023-05-16T10:51:36.920Z,0.40
2023-05-16T10:54:10.137Z,0.40
2023-05-16T10:56:38.297Z,0.20
2023-05-16T10:59:05.984Z,0.25
2023-05-16T11:01:35.612Z,0.35
2023-05-16T11:04:10.252Z,0.20
2023-05-16T11:06:52.355Z,0.50
2023-05-16T11:09:23.359Z,0.30
2023-05-16T11:12:00.191Z,0.20
2023-05-16T11:14:30.296Z,0.30
2023-05-16T11:17:03.403Z,0.30
2023-05-16T11:19:35.708Z,0.30
2023-05-16T11:22:11.961Z,0.30
2023-05-16T11:24:40.680Z,0.30
2023-05-16T11:27:08.813Z,0.32
2023-05-16T11:29:37.391Z,0.40
2023-05-16T11:32:06.278Z,0.43
2023-05-16T11:34:39.563Z,0.20
2023-05-16T11:37:07.502Z,0.20
2023-05-16T11:39:35.242Z,0.10
2023-05-16T11:42:03.407Z,0.30
2023-05-16T11:44:31.003Z,0.20
2023-05-16T11:47:01.800Z,0.22
2023-05-16T11:49:30.057Z,0.30
2023-05-16T11:51:59.041Z,0.40
2023-05-16T11:54:26.872Z,0.40
2023-05-16T11:56:58.037Z,0.30
2023-05-16T11:59:26.434Z,0.73
2023-05-16T12:01:54.019Z,0.60
2023-05-16T12:04:22.328Z,0.50
2023-05-16T12:07:02.124Z,0.25
2023-05-16T12:09:29.753Z,0.68
2023-05-16T12:11:57.704Z,0.38
2023-05-16T12:14:26.674Z,0.70
2023-05-16T12:16:54.936Z,0.73
2023-05-16T12:19:23.227Z,0.45
2023-05-16T12:21:54.231Z,0.45
2023-05-16T12:24:23.179Z,0.47
2023-05-16T12:26:54.349Z,0.45
2023-05-16T12:29:25.019Z,0.30
2023-05-16T12:31:54.576Z,0.40
2023-05-16T12:34:23.146Z,0.40
2023-05-16T12:36:54.693Z,0.40
2023-05-16T12:39:24.025Z,0.30
2023-05-16T12:41:51.827Z,0.35
2023-05-16T12:44:20.565Z,0.40
2023-05-16T12:46:51.321Z,0.30
2023-05-16T12:49:21.304Z,0.35
2023-05-16T12:51:53.010Z,0.40
2023-05-16T12:54:22.843Z,0.60
2023-05-16T12:56:52.225Z,0.40
2023-05-16T12:59:20.189Z,0.30
2023-05-16T13:01:47.868Z,0.50
2023-05-16T13:04:19.173Z,0.40
2023-05-16T13:06:58.647Z,0.50
2023-05-16T13:09:32.153Z,0.50
2023-05-16T13:12:01.997Z,0.45
2023-05-16T13:14:29.805Z,0.40
2023-05-16T13:16:57.541Z,0.50
2023-05-16T13:19:25.365Z,0.60
2023-05-16T13:21:53.245Z,0.70
2023-05-16T13:24:20.850Z,0.65
2023-05-16T13:26:48.468Z,0.68
2023-05-16T13:29:17.381Z,0.80
2023-05-16T13:31:45.189Z,0.80
2023-05-16T13:34:12.798Z,2.22
2023-05-16T13:36:53.159Z,0.70
2023-05-16T13:39:22.888Z,0.80
2023-05-16T13:41:50.689Z,0.80
2023-05-16T13:44:20.264Z,0.60
2023-05-16T13:46:47.978Z,0.88
2023-05-16T13:49:15.550Z,0.90
2023-05-16T13:51:43.133Z,0.80
2023-05-16T13:54:11.023Z,1.00
2023-05-16T13:56:38.840Z,0.77
2023-05-16T13:59:07.568Z,0.98
2023-05-16T14:01:37.415Z,0.85
2023-05-16T14:04:05.641Z,0.80
2023-05-16T14:06:33.556Z,1.05
2023-05-16T14:09:01.249Z,0.90
2023-05-16T14:11:29.737Z,1.00
2023-05-16T14:13:57.755Z,1.25
2023-05-16T14:16:25.824Z,1.10
2023-05-16T14:18:54.920Z,1.20
2023-05-16T14:21:22.573Z,0.65
2023-05-16T14:23:50.175Z,1.00
2023-05-16T14:26:19.048Z,0.73
2023-05-16T14:28:46.621Z,0.90
2023-05-16T14:31:16.325Z,1.10
2023-05-16T14:33:44.056Z,0.93
2023-05-16T14:36:13.067Z,2.58
2023-05-16T14:38:40.699Z,1.00
2023-05-16T14:41:08.354Z,1.38
2023-05-16T14:43:35.988Z,0.98
2023-05-16T14:46:03.625Z,1.00
2023-05-16T14:48:31.298Z,1.17
2023-05-16T14:50:58.913Z,1.13
2023-05-16T14:53:27.861Z,1.13
2023-05-16T14:55:55.645Z,0.75
2023-05-16T14:58:23.717Z,1.83
2023-05-16T15:00:51.709Z,1.00
2023-05-16T15:03:19.354Z,1.40
2023-05-16T15:05:47.078Z,0.98
2023-05-16T15:08:14.822Z,0.70
2023-05-16T15:10:43.823Z,0.90
2023-05-16T15:13:11.755Z,1.10
2023-05-16T15:15:39.436Z,2.95
2023-05-16T15:18:07.123Z,1.13
2023-05-16T15:20:34.872Z,1.35
2023-05-16T15:23:02.525Z,1.05
2023-05-16T15:25:30.406Z,0.85
2023-05-16T15:27:59.626Z,0.60
2023-05-16T15:30:27.201Z,0.80
2023-05-16T15:32:54.924Z,0.70
2023-05-16T15:35:22.570Z,0.50
2023-05-16T15:40:22.279Z,2.83
2023-05-16T15:42:52.660Z,0.70
2023-05-16T15:45:22.059Z,0.57
2023-05-16T15:47:49.864Z,0.60
2023-05-16T15:50:17.492Z,0.80
2023-05-16T15:52:45.478Z,0.93
2023-05-16T15:55:13.104Z,0.57
2023-05-16T15:57:40.648Z,0.80
2023-05-16T16:00:09.667Z,0.70
2023-05-16T16:02:42.361Z,1.08
2023-05-16T16:05:10.409Z,0.80
2023-05-16T16:07:38.015Z,0.75
2023-05-16T16:10:06.328Z,0.77
2023-05-16T16:12:34.198Z,0.60
2023-05-16T16:15:02.369Z,0.70
2023-05-16T16:17:30.292Z,1.08
2023-05-16T16:19:59.324Z,0.70
2023-05-16T16:22:26.900Z,0.80
2023-05-16T16:24:54.575Z,0.77
2023-05-16T16:27:22.218Z,0.50
2023-05-16T16:29:49.856Z,1.10
2023-05-16T16:32:17.439Z,0.88
2023-05-16T16:34:45.046Z,1.13
2023-05-16T16:37:14.046Z,0.63
2023-05-16T16:39:41.636Z,0.70
2023-05-16T16:42:09.469Z,0.70
2023-05-16T16:44:37.156Z,1.20
2023-05-16T16:47:05.034Z,1.10
2023-05-16T16:49:32.897Z,1.42
2023-05-16T16:52:00.493Z,0.70
2023-05-16T16:54:29.465Z,0.85
2023-05-16T16:56:57.099Z,0.80
2023-05-16T16:59:24.894Z,0.70
2023-05-16T17:01:52.568Z,1.17
2023-05-16T17:04:20.206Z,1.27
2023-05-16T17:06:48.819Z,1.13
2023-05-16T17:09:19.453Z,1.23
2023-05-16T17:11:48.551Z,0.60
2023-05-16T17:14:16.204Z,0.60
2023-05-16T17:16:43.843Z,0.70
2023-05-16T17:19:11.842Z,0.65
2023-05-16T17:21:40.491Z,0.57
2023-05-16T17:24:08.676Z,0.70
2023-05-16T17:26:36.572Z,1.30
2023-05-16T17:29:05.870Z,0.70
2023-05-16T17:31:33.606Z,0.50
2023-05-16T17:34:01.232Z,0.70
2023-05-16T17:36:28.899Z,0.50
2023-05-16T17:38:56.507Z,1.10
2023-05-16T17:41:24.138Z,0.98
2023-05-16T17:43:51.685Z,0.85
2023-05-16T17:46:21.462Z,0.50
2023-05-16T17:48:49.196Z,0.80
2023-05-16T17:51:16.903Z,0.52
2023-05-16T17:53:45.428Z,0.60
2023-05-16T17:56:13.933Z,0.55
2023-05-16T17:58:41.762Z,0.70
2023-05-16T18:01:10.132Z,0.77
2023-05-16T18:03:39.374Z,1.90
2023-05-16T18:06:07.324Z,0.60
2023-05-16T18:08:35.049Z,0.82
2023-05-16T18:11:02.674Z,0.65
2023-05-16T18:13:31.042Z,0.60
2023-05-16T18:15:58.655Z,0.77
2023-05-16T18:18:27.110Z,0.80
2023-05-16T18:20:56.166Z,1.42
2023-05-16T18:23:24.664Z,1.65
2023-05-16T18:25:52.640Z,1.10
2023-05-16T18:28:21.372Z,0.60
2023-05-16T18:30:50.059Z,0.65
2023-05-16T18:33:18.039Z,0.77
2023-05-16T18:35:45.683Z,0.50
2023-05-16T18:38:28.456Z,0.60
2023-05-16T18:41:00.135Z,0.68
2023-05-16T18:43:27.748Z,0.50
2023-05-16T18:45:55.358Z,0.70
2023-05-16T18:48:23.081Z,0.70
2023-05-16T18:50:51.257Z,0.45
2023-05-16T18:53:20.646Z,0.40
2023-05-16T18:55:48.846Z,2.00
2023-05-16T18:58:16.541Z,0.70
2023-05-16T19:00:44.515Z,0.60
2023-05-16T19:03:13.245Z,0.50
2023-05-16T19:05:41.064Z,0.50
2023-05-16T19:08:08.680Z,0.50
2023-05-16T19:10:41.394Z,0.45
2023-05-16T19:13:09.228Z,0.73
2023-05-16T19:15:37.780Z,0.50
2023-05-16T19:18:06.281Z,0.50
2023-05-16T19:20:35.065Z,0.50
2023-05-16T19:23:03.184Z,0.57
2023-05-16T19:25:32.040Z,4.68
2023-05-16T19:28:00.988Z,5.75
2023-05-16T19:30:28.847Z,1.90
2023-05-16T19:32:56.687Z,1.33
2023-05-16T19:35:24.473Z,1.15
2023-05-16T19:37:52.140Z,0.80
2023-05-16T19:40:19.802Z,1.00
2023-05-16T19:42:47.458Z,0.80
2023-05-16T19:45:16.388Z,0.80
2023-05-16T19:47:44.387Z,0.60
2023-05-16T19:50:12.280Z,0.70
2023-05-16T19:52:39.974Z,0.40
2023-05-16T19:55:09.390Z,2.90
2023-05-16T19:57:37.414Z,9.02
2023-05-16T20:00:06.223Z,1.35
2023-05-16T20:02:43.122Z,0.57
2023-05-16T20:05:11.861Z,0.50
2023-05-16T20:07:40.265Z,0.73
2023-05-16T20:10:09.618Z,0.47
2023-05-16T20:12:37.905Z,0.52
2023-05-16T20:15:08.202Z,0.55
2023-05-16T20:17:35.886Z,0.50
2023-05-16T20:20:05.610Z,0.77
2023-05-16T20:22:33.624Z,0.63
2023-05-16T20:25:01.264Z,0.40
2023-05-16T20:27:30.443Z,0.60
2023-05-16T20:29:59.374Z,0.40
2023-05-16T20:32:27.128Z,0.70
2023-05-16T20:34:54.985Z,0.55
2023-05-16T20:37:26.564Z,0.80
2023-05-16T20:39:54.787Z,1.02
2023-05-16T20:42:25.768Z,1.00
2023-05-16T20:44:53.430Z,1.20
2023-05-16T20:47:21.465Z,1.25
2023-05-16T20:49:49.195Z,1.00
2023-05-16T20:52:16.861Z,0.70
2023-05-16T20:54:45.808Z,0.75
2023-05-16T20:57:13.908Z,0.68
2023-05-16T20:59:41.510Z,0.30
2023-05-16T21:02:10.209Z,0.55
2023-05-16T21:04:37.999Z,0.43
2023-05-16T21:07:08.115Z,0.70
2023-05-16T21:09:37.650Z,0.60
2023-05-16T21:12:07.190Z,0.47
2023-05-16T21:14:34.831Z,0.52
2023-05-16T21:17:02.436Z,0.30
2023-05-16T21:19:33.934Z,0.45
2023-05-16T21:22:03.797Z,0.47
2023-05-16T21:24:35.055Z,0.40
2023-05-16T21:27:03.661Z,0.63
2023-05-16T21:29:32.744Z,1.00
2023-05-16T21:32:00.489Z,0.68
2023-05-16T21:34:28.244Z,0.70
2023-05-16T21:36:57.000Z,0.65
2023-05-16T21:39:24.687Z,0.52
2023-05-16T21:41:52.470Z,0.75
2023-05-16T21:44:20.777Z,0.70
2023-05-16T21:46:49.743Z,1.20
2023-05-16T21:49:17.413Z,0.63
2023-05-16T21:51:45.159Z,0.90
2023-05-16T21:54:12.823Z,1.33
2023-05-16T21:56:40.474Z,0.70
2023-05-16T21:59:08.135Z,0.68
2023-05-16T22:01:36.197Z,0.50
2023-05-16T22:04:05.592Z,1.70
2023-05-16T22:06:33.257Z,0.73
2023-05-16T22:09:01.660Z,0.40
2023-05-16T22:11:29.322Z,0.45
2023-05-16T22:13:57.008Z,0.52
2023-05-16T22:16:24.665Z,0.60
2023-05-16T22:18:52.525Z,0.90
2023-05-16T22:21:21.744Z,0.75
2023-05-16T22:23:49.491Z,0.75
2023-05-16T22:26:17.144Z,0.77
2023-05-16T22:28:44.776Z,0.90
2023-05-16T22:31:12.349Z,0.80
2023-05-16T22:33:40.113Z,0.93
2023-05-16T22:36:08.068Z,0.95
2023-05-16T22:38:36.970Z,1.00
2023-05-16T22:41:04.749Z,0.63
2023-05-16T22:43:32.344Z,0.93
2023-05-16T22:46:02.196Z,0.70
2023-05-16T22:48:30.952Z,0.75
2023-05-16T22:50:59.515Z,1.35
2023-05-16T22:53:27.264Z,1.20
2023-05-16T22:55:56.453Z,0.80
2023-05-16T22:58:24.135Z,0.82
2023-05-16T23:00:51.753Z,1.23
2023-05-16T23:03:19.696Z,1.00
2023-05-16T23:05:47.341Z,0.63
2023-05-16T23:08:14.927Z,0.90
2023-05-16T23:10:42.548Z,0.80
2023-05-16T23:13:11.560Z,3.53
2023-05-16T23:15:39.216Z,0.98
2023-05-16T23:18:07.114Z,0.80
2023-05-16T23:20:34.814Z,0.85
2023-05-16T23:23:02.457Z,0.93
2023-05-16T23:25:30.358Z,0.80
2023-05-16T23:27:58.301Z,0.98
2023-05-16T23:30:27.431Z,0.98
2023-05-16T23:32:55.071Z,0.90
2023-05-16T23:35:23.023Z,1.15
2023-05-16T23:37:50.706Z,0.90
2023-05-16T23:40:18.713Z,0.80
2023-05-16T23:42:46.291Z,0.93
2023-05-16T23:45:13.938Z,0.93
2023-05-16T23:47:42.907Z,0.90
2023-05-16T23:50:11.262Z,1.20
2023-05-16T23:52:38.863Z,1.10
2023-05-16T23:55:09.582Z,1.30
2023-05-16T23:57:37.211Z,0.82
